PWSweather.com
Personal Weather Stations
Station Observations
SHAHALMS1
Eftra, Falkenberg, HA

EftraFalkenberg, HA

Lat: 56.85, Lon: 12.65

Elevation: 140

Station Type:

http://hem.passagen.se/risarp101

High Low Average
Temperature 63.9°F17.7°C 54.0°F12.2°C 57.9°F14.4°C
Dew Point 50.1°F10.1°C 45.6°F7.6°C 47.7°F8.7°C
Winds 9.3 mph 15.0 kmh Calm Calm 5.0 mph WSW8.0 kmh WSW
Wind Gusts 26.8 mph43.1 kmh -- 12.0 mph19.3 kmh
Humidity 79% 59% 69%
Pressure 30.04 in1017.3 mb 29.95 in1014.2 mb -
Precipitation 0.00 in0.0 mm - -
Hour Temp Dew Point Humidity Winds Wind Gusts Pressure Precip Precip Rate Daily Precip Total
12:00 AM 56.8°F13.8°C 46.8°F8.2°C 69% 7.8 mph WNW12.6 kmh WNW 19.3 mph31.1 kmh 29.95 in1014.2 mb 0.00 in0.0 mm 0.00 in0.0 mm 0.00 in0.0 mm
12:15 AM 56.8°F13.8°C 46.8°F8.2°C 69% 7.5 mph WNW12.1 kmh WNW 22.2 mph35.7 kmh 29.95 in1014.2 mb 0.00 in0.0 mm 0.00 in0.0 mm 0.00 in0.0 mm
12:30 AM 56.7°F13.7°C 46.2°F7.9°C 68% 8.4 mph W13.5 kmh W 21.1 mph34.0 kmh 29.95 in1014.2 mb 0.00 in0.0 mm 0.00 in0.0 mm 0.00 in0.0 mm
12:45 AM 56.7°F13.7°C 46.6°F8.1°C 69% 5.9 mph W9.5 kmh W 16.8 mph27.0 kmh 29.98 in1015.2 mb 0.00 in0.0 mm 0.00 in0.0 mm 0.00 in0.0 mm
01:00 AM 56.7°F13.7°C 46.6°F8.1°C 69% 5.5 mph W8.9 kmh W 16.8 mph27.0 kmh 29.98 in1015.2 mb 0.00 in0.0 mm 0.00 in0.0 mm 0.00 in0.0 mm
01:15 AM 56.5°F13.6°C 46.4°F8.0°C 69% 7.2 mph NW11.6 kmh NW 16.5 mph26.6 kmh 29.98 in1015.2 mb 0.00 in0.0 mm 0.00 in0.0 mm 0.00 in0.0 mm
01:30 AM 56.5°F13.6°C 46.8°F8.2°C 70% 5.4 mph W8.7 kmh W 14.0 mph22.5 kmh 29.95 in1014.2 mb 0.00 in0.0 mm 0.00 in0.0 mm 0.00 in0.0 mm
01:45 AM 56.5°F13.6°C 46.8°F8.2°C 70% 6.6 mph W10.6 kmh W 17.9 mph28.8 kmh 29.98 in1015.2 mb 0.00 in0.0 mm 0.00 in0.0 mm 0.00 in0.0 mm
02:00 AM 56.5°F13.6°C 46.8°F8.2°C 70% 5.8 mph W9.3 kmh W 16.5 mph26.6 kmh 29.98 in1015.2 mb 0.00 in0.0 mm 0.00 in0.0 mm 0.00 in0.0 mm
02:15 AM 56.5°F13.6°C 46.4°F8.0°C 69% 9.3 mph WNW15.0 kmh WNW 23.3 mph37.5 kmh 29.98 in1015.2 mb 0.00 in0.0 mm 0.00 in0.0 mm 0.00 in0.0 mm
02:30 AM 56.5°F13.6°C 46.4°F8.0°C 69% 8.1 mph WNW13.0 kmh WNW 17.5 mph28.2 kmh 29.98 in1015.2 mb 0.00 in0.0 mm 0.00 in0.0 mm 0.00 in0.0 mm
02:45 AM 56.3°F13.5°C 46.6°F8.1°C 70% 6.6 mph WNW10.6 kmh WNW 26.8 mph43.1 kmh 29.98 in1015.2 mb 0.00 in0.0 mm 0.00 in0.0 mm 0.00 in0.0 mm
03:00 AM 56.1°F13.4°C 46.5°F8.1°C 70% 6.6 mph W10.6 kmh W 20.8 mph33.5 kmh 29.98 in1015.2 mb 0.00 in0.0 mm 0.00 in0.0 mm 0.00 in0.0 mm
03:15 AM 56.1°F13.4°C 46.1°F7.8°C 69% 6.9 mph WNW11.1 kmh WNW 15.4 mph24.8 kmh 29.98 in1015.2 mb 0.00 in0.0 mm 0.00 in0.0 mm 0.00 in0.0 mm
03:30 AM 56.1°F13.4°C 46.1°F7.8°C 69% 5.8 mph W9.3 kmh W 12.5 mph20.1 kmh 29.95 in1014.2 mb 0.00 in0.0 mm 0.00 in0.0 mm 0.00 in0.0 mm
03:45 AM 55.9°F13.3°C 45.9°F7.7°C 69% 6.9 mph WNW11.1 kmh WNW 16.5 mph26.6 kmh 29.98 in1015.2 mb 0.00 in0.0 mm 0.00 in0.0 mm 0.00 in0.0 mm
04:00 AM 55.9°F13.3°C 46.3°F7.9°C 70% 6.8 mph W10.9 kmh W 15.7 mph25.3 kmh 29.98 in1015.2 mb 0.00 in0.0 mm 0.00 in0.0 mm 0.00 in0.0 mm
04:15 AM 55.8°F13.2°C 46.1°F7.8°C 70% 6.0 mph W9.7 kmh W 11.1 mph17.9 kmh 29.98 in1015.2 mb 0.00 in0.0 mm 0.00 in0.0 mm 0.00 in0.0 mm
04:30 AM 55.6°F13.1°C 45.9°F7.7°C 70% 5.8 mph W9.3 kmh W 16.5 mph26.6 kmh 29.98 in1015.2 mb 0.00 in0.0 mm 0.00 in0.0 mm 0.00 in0.0 mm
04:45 AM 55.4°F13.0°C 46.2°F7.9°C 71% 5.5 mph WNW8.9 kmh WNW 16.1 mph25.9 kmh 29.98 in1015.2 mb 0.00 in0.0 mm 0.00 in0.0 mm 0.00 in0.0 mm
05:00 AM 55.2°F12.9°C 46.0°F7.8°C 71% 5.6 mph WNW9.0 kmh WNW 12.5 mph20.1 kmh 29.98 in1015.2 mb 0.00 in0.0 mm 0.00 in0.0 mm 0.00 in0.0 mm
05:15 AM 55.2°F12.9°C 46.0°F7.8°C 71% 5.6 mph W9.0 kmh W 15.7 mph25.3 kmh 29.98 in1015.2 mb 0.00 in0.0 mm 0.00 in0.0 mm 0.00 in0.0 mm
05:30 AM 55.2°F12.9°C 45.6°F7.6°C 70% 5.9 mph WNW9.5 kmh WNW 14.0 mph22.5 kmh 29.98 in1015.2 mb 0.00 in0.0 mm 0.00 in0.0 mm 0.00 in0.0 mm
05:45 AM 55.4°F13.0°C 45.8°F7.7°C 70% 5.4 mph WNW8.7 kmh WNW 12.2 mph19.6 kmh 29.98 in1015.2 mb 0.00 in0.0 mm 0.00 in0.0 mm 0.00 in0.0 mm
06:00 AM 55.6°F13.1°C 45.9°F7.7°C 70% 4.0 mph W6.4 kmh W 11.1 mph17.9 kmh 30.01 in1016.3 mb 0.00 in0.0 mm 0.00 in0.0 mm 0.00 in0.0 mm
06:15 AM 55.8°F13.2°C 46.1°F7.8°C 70% 4.6 mph W7.4 kmh W 12.9 mph20.8 kmh 29.98 in1015.2 mb 0.00 in0.0 mm 0.00 in0.0 mm 0.00 in0.0 mm
06:30 AM 55.9°F13.3°C 46.3°F7.9°C 70% 4.7 mph W7.6 kmh W 12.5 mph20.1 kmh 29.98 in1015.2 mb 0.00 in0.0 mm 0.00 in0.0 mm 0.00 in0.0 mm
06:45 AM 55.9°F13.3°C 46.3°F7.9°C 70% 4.6 mph W7.4 kmh W 15.4 mph24.8 kmh 30.01 in1016.3 mb 0.00 in0.0 mm 0.00 in0.0 mm 0.00 in0.0 mm
07:00 AM 56.3°F13.5°C 46.3°F7.9°C 69% 4.3 mph W6.9 kmh W 13.6 mph21.9 kmh 29.98 in1015.2 mb 0.00 in0.0 mm 0.00 in0.0 mm 0.00 in0.0 mm
07:15 AM 56.3°F13.5°C 46.3°F7.9°C 69% 4.0 mph W6.4 kmh W 12.2 mph19.6 kmh 29.98 in1015.2 mb 0.00 in0.0 mm 0.00 in0.0 mm 0.00 in0.0 mm
07:30 AM 57.2°F14.0°C 46.7°F8.2°C 68% 4.4 mph W7.1 kmh W 12.5 mph20.1 kmh 29.95 in1014.2 mb 0.00 in0.0 mm 0.00 in0.0 mm 0.00 in0.0 mm
07:45 AM 57.6°F14.2°C 47.1°F8.4°C 68% 3.9 mph W6.3 kmh W 13.6 mph21.9 kmh 29.98 in1015.2 mb 0.00 in0.0 mm 0.00 in0.0 mm 0.00 in0.0 mm
08:00 AM 58.3°F14.6°C 47.8°F8.8°C 68% 4.3 mph W6.9 kmh W 12.5 mph20.1 kmh 29.98 in1015.2 mb 0.00 in0.0 mm 0.00 in0.0 mm 0.00 in0.0 mm
08:15 AM 59.0°F15.0°C 48.1°F8.9°C 67% 4.1 mph W6.6 kmh W 9.3 mph15.0 kmh 29.98 in1015.2 mb 0.00 in0.0 mm 0.00 in0.0 mm 0.00 in0.0 mm
08:30 AM 59.0°F15.0°C 47.7°F8.7°C 66% 3.5 mph W5.6 kmh W 10.0 mph16.1 kmh 29.98 in1015.2 mb 0.00 in0.0 mm 0.00 in0.0 mm 0.00 in0.0 mm
08:45 AM 59.2°F15.1°C 48.6°F9.2°C 68% 4.8 mph W7.7 kmh W 13.6 mph21.9 kmh 30.01 in1016.3 mb 0.00 in0.0 mm 0.00 in0.0 mm 0.00 in0.0 mm
09:00 AM 59.7°F15.4°C 48.3°F9.1°C 66% 5.6 mph W9.0 kmh W 11.8 mph19.0 kmh 30.01 in1016.3 mb 0.00 in0.0 mm 0.00 in0.0 mm 0.00 in0.0 mm
09:15 AM 60.1°F15.6°C 48.3°F9.1°C 65% 5.0 mph W8.0 kmh W 14.0 mph22.5 kmh 30.01 in1016.3 mb 0.00 in0.0 mm 0.00 in0.0 mm 0.00 in0.0 mm
09:45 AM 60.8°F16.0°C 48.1°F8.9°C 63% 5.6 mph W9.0 kmh W 10.0 mph16.1 kmh 30.04 in1017.3 mb 0.00 in0.0 mm 0.00 in0.0 mm 0.00 in0.0 mm
10:00 AM 61.5°F16.4°C 49.2°F9.6°C 64% 4.9 mph W7.9 kmh W 10.0 mph16.1 kmh 30.04 in1017.3 mb 0.00 in0.0 mm 0.00 in0.0 mm 0.00 in0.0 mm
10:15 AM 61.5°F16.4°C 48.8°F9.3°C 63% 5.6 mph W9.0 kmh W 12.9 mph20.8 kmh 30.04 in1017.3 mb 0.00 in0.0 mm 0.00 in0.0 mm 0.00 in0.0 mm
10:30 AM 61.9°F16.6°C 49.1°F9.5°C 63% 6.6 mph W10.6 kmh W 14.3 mph23.0 kmh 30.04 in1017.3 mb 0.00 in0.0 mm 0.00 in0.0 mm 0.00 in0.0 mm
10:45 AM 62.1°F16.7°C 49.3°F9.6°C 63% 5.8 mph W9.3 kmh W 14.0 mph22.5 kmh 30.04 in1017.3 mb 0.00 in0.0 mm 0.00 in0.0 mm 0.00 in0.0 mm
11:00 AM 61.9°F16.6°C 49.1°F9.5°C 63% 5.4 mph WSW8.7 kmh WSW 12.2 mph19.6 kmh 30.04 in1017.3 mb 0.00 in0.0 mm 0.00 in0.0 mm 0.00 in0.0 mm
11:15 AM 62.4°F16.9°C 49.2°F9.6°C 62% 6.9 mph W11.1 kmh W 14.0 mph22.5 kmh 30.01 in1016.3 mb 0.00 in0.0 mm 0.00 in0.0 mm 0.00 in0.0 mm
11:30 AM 62.2°F16.8°C 49.1°F9.5°C 62% 5.5 mph W8.9 kmh W 12.2 mph19.6 kmh 30.01 in1016.3 mb 0.00 in0.0 mm 0.00 in0.0 mm 0.00 in0.0 mm
11:45 AM 63.0°F17.2°C 49.7°F9.8°C 62% 6.6 mph W10.6 kmh W 12.2 mph19.6 kmh 30.01 in1016.3 mb 0.00 in0.0 mm 0.00 in0.0 mm 0.00 in0.0 mm
12:00 PM 62.6°F17.0°C 49.4°F9.7°C 62% 6.1 mph W9.8 kmh W 16.1 mph25.9 kmh 30.01 in1016.3 mb 0.00 in0.0 mm 0.00 in0.0 mm 0.00 in0.0 mm
12:15 PM 63.1°F17.3°C 49.9°F9.9°C 62% 5.7 mph W9.2 kmh W 14.3 mph23.0 kmh 30.01 in1016.3 mb 0.00 in0.0 mm 0.00 in0.0 mm 0.00 in0.0 mm
12:30 PM 63.1°F17.3°C 49.5°F9.7°C 61% 6.0 mph W9.7 kmh W 12.2 mph19.6 kmh 30.01 in1016.3 mb 0.00 in0.0 mm 0.00 in0.0 mm 0.00 in0.0 mm
12:45 PM 63.3°F17.4°C 49.2°F9.6°C 60% 7.3 mph W11.7 kmh W 16.1 mph25.9 kmh 30.01 in1016.3 mb 0.00 in0.0 mm 0.00 in0.0 mm 0.00 in0.0 mm
01:00 PM 62.4°F16.9°C 48.8°F9.3°C 61% 6.2 mph W10.0 kmh W 12.5 mph20.1 kmh 30.01 in1016.3 mb 0.00 in0.0 mm 0.00 in0.0 mm 0.00 in0.0 mm
01:15 PM 63.7°F17.6°C 50.0°F10.0°C 61% 4.9 mph W7.9 kmh W 10.4 mph16.7 kmh 30.01 in1016.3 mb 0.00 in0.0 mm 0.00 in0.0 mm 0.00 in0.0 mm
01:30 PM 63.9°F17.7°C 50.1°F10.1°C 61% 5.8 mph WSW9.3 kmh WSW 16.1 mph25.9 kmh 29.98 in1015.2 mb 0.00 in0.0 mm 0.00 in0.0 mm 0.00 in0.0 mm
01:45 PM 63.3°F17.4°C 48.7°F9.3°C 59% 6.3 mph W10.1 kmh W 17.2 mph27.7 kmh 29.98 in1015.2 mb 0.00 in0.0 mm 0.00 in0.0 mm 0.00 in0.0 mm
02:00 PM 62.4°F16.9°C 48.3°F9.1°C 60% 4.9 mph W7.9 kmh W 12.2 mph19.6 kmh 30.01 in1016.3 mb 0.00 in0.0 mm 0.00 in0.0 mm 0.00 in0.0 mm
02:15 PM 62.6°F17.0°C 48.5°F9.2°C 60% 5.5 mph W8.9 kmh W 12.5 mph20.1 kmh 30.01 in1016.3 mb 0.00 in0.0 mm 0.00 in0.0 mm 0.00 in0.0 mm
02:30 PM 61.7°F16.5°C 48.5°F9.2°C 62% 5.2 mph WSW8.4 kmh WSW 10.4 mph16.7 kmh 30.01 in1016.3 mb 0.00 in0.0 mm 0.00 in0.0 mm 0.00 in0.0 mm
02:45 PM 61.2°F16.2°C 48.5°F9.2°C 63% 4.2 mph WSW6.8 kmh WSW 8.9 mph14.3 kmh 30.01 in1016.3 mb 0.00 in0.0 mm 0.00 in0.0 mm 0.00 in0.0 mm
03:00 PM 61.5°F16.4°C 48.8°F9.3°C 63% 3.6 mph WSW5.8 kmh WSW 10.4 mph16.7 kmh 29.98 in1015.2 mb 0.00 in0.0 mm 0.00 in0.0 mm 0.00 in0.0 mm
03:15 PM 60.8°F16.0°C 48.5°F9.2°C 64% 4.6 mph W7.4 kmh W 10.0 mph16.1 kmh 29.98 in1015.2 mb 0.00 in0.0 mm 0.00 in0.0 mm 0.00 in0.0 mm
03:30 PM 60.3°F15.7°C 48.4°F9.1°C 65% 5.4 mph W8.7 kmh W 11.5 mph18.5 kmh 29.98 in1015.2 mb 0.00 in0.0 mm 0.00 in0.0 mm 0.00 in0.0 mm
03:45 PM 59.2°F15.1°C 48.6°F9.2°C 68% 7.0 mph WSW11.3 kmh WSW 12.9 mph20.8 kmh 29.95 in1014.2 mb 0.00 in0.0 mm 0.00 in0.0 mm 0.00 in0.0 mm
04:00 PM 58.6°F14.8°C 48.9°F9.4°C 70% 4.0 mph WSW6.4 kmh WSW 8.6 mph13.8 kmh 29.98 in1015.2 mb 0.00 in0.0 mm 0.00 in0.0 mm 0.00 in0.0 mm
04:15 PM 58.6°F14.8°C 48.9°F9.4°C 70% 4.1 mph W6.6 kmh W 10.4 mph16.7 kmh 29.98 in1015.2 mb 0.00 in0.0 mm 0.00 in0.0 mm 0.00 in0.0 mm
04:30 PM 58.6°F14.8°C 48.9°F9.4°C 70% 3.1 mph WSW5.0 kmh WSW 7.9 mph12.7 kmh 29.98 in1015.2 mb 0.00 in0.0 mm 0.00 in0.0 mm 0.00 in0.0 mm
04:45 PM 58.5°F14.7°C 49.1°F9.5°C 71% 4.2 mph WSW6.8 kmh WSW 10.4 mph16.7 kmh 29.98 in1015.2 mb 0.00 in0.0 mm 0.00 in0.0 mm 0.00 in0.0 mm
05:00 PM 58.6°F14.8°C 49.6°F9.8°C 72% 4.1 mph W6.6 kmh W 9.7 mph15.6 kmh 29.98 in1015.2 mb 0.00 in0.0 mm 0.00 in0.0 mm 0.00 in0.0 mm
05:15 PM 58.5°F14.7°C 49.1°F9.5°C 71% 3.9 mph SW6.3 kmh SW 9.7 mph15.6 kmh 29.98 in1015.2 mb 0.00 in0.0 mm 0.00 in0.0 mm 0.00 in0.0 mm
05:30 PM 57.7°F14.3°C 48.4°F9.1°C 71% 5.2 mph WSW8.4 kmh WSW 12.5 mph20.1 kmh 29.98 in1015.2 mb 0.00 in0.0 mm 0.00 in0.0 mm 0.00 in0.0 mm
05:45 PM 57.4°F14.1°C 48.4°F9.1°C 72% 4.1 mph WSW6.6 kmh WSW 12.2 mph19.6 kmh 29.98 in1015.2 mb 0.00 in0.0 mm 0.00 in0.0 mm 0.00 in0.0 mm
06:00 PM 57.2°F14.0°C 48.3°F9.1°C 72% 5.5 mph WNW8.9 kmh WNW 14.0 mph22.5 kmh 29.98 in1015.2 mb 0.00 in0.0 mm 0.00 in0.0 mm 0.00 in0.0 mm
06:15 PM 56.3°F13.5°C 47.4°F8.6°C 72% 2.7 mph W4.3 kmh W 6.1 mph9.8 kmh 29.98 in1015.2 mb 0.00 in0.0 mm 0.00 in0.0 mm 0.00 in0.0 mm
06:30 PM 55.8°F13.2°C 47.6°F8.7°C 74% Calm Calm -- 29.98 in1015.2 mb 0.00 in0.0 mm 0.00 in0.0 mm 0.00 in0.0 mm
06:45 PM 55.4°F13.0°C 48.0°F8.9°C 76% Calm Calm 1.4 mph2.3 kmh 29.98 in1015.2 mb 0.00 in0.0 mm 0.00 in0.0 mm 0.00 in0.0 mm
07:00 PM 55.0°F12.8°C 48.0°F8.9°C 77% 0.1 mph SE0.2 kmh SE 2.5 mph4.0 kmh 29.95 in1014.2 mb 0.00 in0.0 mm 0.00 in0.0 mm 0.00 in0.0 mm
07:15 PM 54.9°F12.7°C 48.1°F8.9°C 78% 0.3 mph SSE0.5 kmh SSE 3.9 mph6.3 kmh 29.95 in1014.2 mb 0.00 in0.0 mm 0.00 in0.0 mm 0.00 in0.0 mm
07:30 PM 54.9°F12.7°C 48.1°F8.9°C 78% 0.9 mph SSW1.4 kmh SSW 6.1 mph9.8 kmh 29.98 in1015.2 mb 0.00 in0.0 mm 0.00 in0.0 mm 0.00 in0.0 mm
07:45 PM 54.9°F12.7°C 48.1°F8.9°C 78% 0.7 mph S1.1 kmh S 4.3 mph6.9 kmh 29.95 in1014.2 mb 0.00 in0.0 mm 0.00 in0.0 mm 0.00 in0.0 mm
08:00 PM 54.7°F12.6°C 48.0°F8.9°C 78% 0.3 mph SSE0.5 kmh SSE 3.9 mph6.3 kmh 29.98 in1015.2 mb 0.00 in0.0 mm 0.00 in0.0 mm 0.00 in0.0 mm
08:15 PM 54.5°F12.5°C 48.1°F8.9°C 79% 0.1 mph W0.2 kmh W 1.8 mph2.9 kmh 29.95 in1014.2 mb 0.00 in0.0 mm 0.00 in0.0 mm 0.00 in0.0 mm
08:30 PM 54.1°F12.3°C 47.4°F8.6°C 78% 1.9 mph WSW3.1 kmh WSW 6.8 mph10.9 kmh 29.98 in1015.2 mb 0.00 in0.0 mm 0.00 in0.0 mm 0.00 in0.0 mm
08:45 PM 54.1°F12.3°C 46.7°F8.2°C 76% 0.6 mph W1.0 kmh W 5.0 mph8.0 kmh 29.95 in1014.2 mb 0.00 in0.0 mm 0.00 in0.0 mm 0.00 in0.0 mm
09:00 PM 54.0°F12.2°C 46.6°F8.1°C 76% 1.9 mph W3.1 kmh W 6.1 mph9.8 kmh 29.98 in1015.2 mb 0.00 in0.0 mm 0.00 in0.0 mm 0.00 in0.0 mm
09:15 PM 54.1°F12.3°C 46.7°F8.2°C 76% 2.4 mph WSW3.9 kmh WSW 6.4 mph10.3 kmh 29.95 in1014.2 mb 0.00 in0.0 mm 0.00 in0.0 mm 0.00 in0.0 mm
09:30 PM 54.9°F12.7°C 47.4°F8.6°C 76% 3.2 mph WSW5.1 kmh WSW 8.6 mph13.8 kmh 29.95 in1014.2 mb 0.00 in0.0 mm 0.00 in0.0 mm 0.00 in0.0 mm
09:45 PM 55.4°F13.0°C 48.0°F8.9°C 76% 5.5 mph WSW8.9 kmh WSW 13.6 mph21.9 kmh 29.95 in1014.2 mb 0.00 in0.0 mm 0.00 in0.0 mm 0.00 in0.0 mm
10:00 PM 55.9°F13.3°C 48.1°F8.9°C 75% 5.0 mph W8.0 kmh W 11.5 mph18.5 kmh 29.95 in1014.2 mb 0.00 in0.0 mm 0.00 in0.0 mm 0.00 in0.0 mm
10:15 PM 56.5°F13.6°C 48.3°F9.1°C 74% 6.1 mph WSW9.8 kmh WSW 16.8 mph27.0 kmh 29.95 in1014.2 mb 0.00 in0.0 mm 0.00 in0.0 mm 0.00 in0.0 mm
10:30 PM 56.7°F13.7°C 47.7°F8.7°C 72% 5.7 mph W9.2 kmh W 11.8 mph19.0 kmh 29.95 in1014.2 mb 0.00 in0.0 mm 0.00 in0.0 mm 0.00 in0.0 mm
10:45 PM 56.8°F13.8°C 47.5°F8.6°C 71% 5.2 mph WSW8.4 kmh WSW 14.0 mph22.5 kmh 29.95 in1014.2 mb 0.00 in0.0 mm 0.00 in0.0 mm 0.00 in0.0 mm
11:00 PM 57.0°F13.9°C 47.7°F8.7°C 71% 5.3 mph W8.5 kmh W 20.4 mph32.8 kmh 29.95 in1014.2 mb 0.00 in0.0 mm 0.00 in0.0 mm 0.00 in0.0 mm
11:15 PM 56.8°F13.8°C 47.9°F8.8°C 72% 4.9 mph W7.9 kmh W 10.4 mph16.7 kmh 29.95 in1014.2 mb 0.00 in0.0 mm 0.00 in0.0 mm 0.00 in0.0 mm
11:30 PM 56.8°F13.8°C 47.9°F8.8°C 72% 5.9 mph W9.5 kmh W 14.0 mph22.5 kmh 29.95 in1014.2 mb 0.00 in0.0 mm 0.00 in0.0 mm 0.00 in0.0 mm
11:45 PM 56.7°F13.7°C 47.4°F8.6°C 71% 5.4 mph W8.7 kmh W 11.8 mph19.0 kmh 29.95 in1014.2 mb 0.00 in0.0 mm 0.00 in0.0 mm 0.00 in0.0 mm